createdAt,value
2022-12-01T00:01:15.234Z,100663.22
2022-12-01T00:03:42.702Z,100664.19
2022-12-01T00:06:18.052Z,100663.16
2022-12-01T00:09:06.792Z,100674.75
2022-12-01T00:11:35.259Z,100654.63
2022-12-01T00:14:02.413Z,100658.44
2022-12-01T00:16:29.766Z,100653.50
2022-12-01T00:18:57.665Z,100650.47
2022-12-01T00:21:26.082Z,100656.09
2022-12-01T00:23:55.373Z,100649.19
2022-12-01T00:26:23.211Z,100644.81
2022-12-01T00:28:51.576Z,100643.69
2022-12-01T00:31:19.901Z,100649.88
2022-12-01T00:33:46.772Z,100644.53
2022-12-01T00:36:13.686Z,100634.59
2022-12-01T00:38:40.608Z,100639.50
2022-12-01T00:41:07.956Z,100649.50
2022-12-01T00:43:34.999Z,100652.97
2022-12-01T00:46:02.114Z,100657.28
2022-12-01T00:48:29.059Z,100652.66
2022-12-01T00:50:56.277Z,100652.53
2022-12-01T00:53:24.721Z,100649.00
2022-12-01T00:55:54.238Z,100648.50
2022-12-01T00:58:22.313Z,100651.47
2022-12-01T01:01:01.944Z,100665.50
2022-12-01T01:03:30.085Z,100660.19
2022-12-01T01:06:03.114Z,100656.16
2022-12-01T01:08:30.028Z,100662.84
2022-12-01T01:11:00.068Z,100651.84
2022-12-01T01:13:27.858Z,100657.84
2022-12-01T01:15:59.970Z,100648.72
2022-12-01T01:18:27.221Z,100653.41
2022-12-01T01:21:03.069Z,100661.06
2022-12-01T01:23:29.998Z,100656.75
2022-12-01T01:26:14.781Z,100649.47
2022-12-01T01:28:41.843Z,100646.91
2022-12-01T01:31:11.467Z,100652.59
2022-12-01T01:33:38.581Z,100645.44
2022-12-01T01:36:06.442Z,100653.28
2022-12-01T01:38:34.691Z,100646.25
2022-12-01T01:41:01.988Z,100642.31
2022-12-01T01:43:55.735Z,100643.97
2022-12-01T01:46:28.116Z,100642.78
2022-12-01T01:49:08.139Z,100643.31
2022-12-01T01:51:43.669Z,100641.50
2022-12-01T01:54:24.226Z,100631.38
2022-12-01T01:56:53.296Z,100636.31
2022-12-01T01:59:24.542Z,100637.31
2022-12-01T02:02:02.380Z,100633.66
2022-12-01T02:04:29.632Z,100639.97
2022-12-01T02:06:56.453Z,100634.47
2022-12-01T02:09:23.285Z,100631.69
2022-12-01T02:12:11.469Z,100641.03
2022-12-01T02:15:08.999Z,100639.34
2022-12-01T02:18:17.325Z,100635.63
2022-12-01T02:21:02.957Z,100638.06
2022-12-01T02:23:35.287Z,100625.44
2022-12-01T02:26:29.924Z,100624.91
2022-12-01T02:29:26.726Z,100628.38
2022-12-01T02:31:59.214Z,100624.41
2022-12-01T02:34:30.621Z,100620.91
2022-12-01T02:37:06.505Z,100628.94
2022-12-01T02:40:07.203Z,100619.81
2022-12-01T02:43:00.161Z,100608.41
2022-12-01T02:45:41.853Z,100616.75
2022-12-01T02:48:14.419Z,100614.44
2022-12-01T02:50:42.773Z,100608.97
2022-12-01T02:53:13.709Z,100613.44
2022-12-01T02:55:54.204Z,100601.97
2022-12-01T02:58:21.754Z,100598.84
2022-12-01T03:01:18.690Z,100599.66
2022-12-01T03:04:00.965Z,100594.72
2022-12-01T03:06:41.047Z,100596.06
2022-12-01T03:09:14.914Z,100592.13
2022-12-01T03:12:03.147Z,100593.63
2022-12-01T03:14:51.761Z,100592.13
2022-12-01T03:17:28.073Z,100581.47
2022-12-01T03:20:04.801Z,100589.13
2022-12-01T03:22:43.848Z,100580.31
2022-12-01T03:25:13.903Z,100589.28
2022-12-01T03:28:13.575Z,100585.31
2022-12-01T03:30:37.913Z,100582.19
2022-12-01T03:33:10.302Z,100589.47
2022-12-01T03:35:43.044Z,100589.16
2022-12-01T03:38:24.961Z,100590.19
2022-12-01T03:40:57.276Z,100589.16
2022-12-01T03:43:29.144Z,100588.00
2022-12-01T03:46:12.467Z,100589.84
2022-12-01T03:48:40.581Z,100594.16
2022-12-01T03:51:10.397Z,100584.03
2022-12-01T03:54:07.833Z,100598.19
2022-12-01T03:56:41.283Z,100592.03
2022-12-01T03:59:10.213Z,100589.38
2022-12-01T04:01:37.486Z,100590.00
2022-12-01T04:04:15.165Z,100591.34
2022-12-01T04:06:45.214Z,100590.53
2022-12-01T04:09:12.057Z,100582.84
2022-12-01T04:11:57.943Z,100593.66
2022-12-01T04:14:24.817Z,100595.00
2022-12-01T04:16:51.736Z,100586.03
2022-12-01T04:19:18.554Z,100591.13
2022-12-01T04:21:57.661Z,100595.31
2022-12-01T04:24:24.494Z,100592.19
2022-12-01T04:26:51.379Z,100594.81
2022-12-01T04:29:18.244Z,100586.50
2022-12-01T04:31:45.157Z,100599.59
2022-12-01T04:34:12.181Z,100592.81
2022-12-01T04:36:39.021Z,100590.63
2022-12-01T04:39:06.209Z,100589.47
2022-12-01T04:41:33.848Z,100597.81
2022-12-01T04:44:00.730Z,100602.00
2022-12-01T04:46:27.607Z,100602.25
2022-12-01T04:48:54.566Z,100601.59
2022-12-01T04:51:22.512Z,100602.44
2022-12-01T04:53:51.013Z,100609.59
2022-12-01T04:56:18.253Z,100613.22
2022-12-01T04:58:45.910Z,100611.38
2022-12-01T05:01:16.456Z,100611.72
2022-12-01T05:03:46.193Z,100621.09
2022-12-01T05:06:16.896Z,100620.59
2022-12-01T05:08:43.860Z,100612.41
2022-12-01T05:11:12.439Z,100609.59
2022-12-01T05:13:41.120Z,100613.34
2022-12-01T05:16:19.757Z,100616.94
2022-12-01T05:18:51.708Z,100623.94
2022-12-01T05:21:18.866Z,100620.28
2022-12-01T05:23:45.848Z,100621.13
2022-12-01T05:26:12.712Z,100622.88
2022-12-01T05:28:41.121Z,100622.56
2022-12-01T05:31:08.117Z,100623.94
2022-12-01T05:33:35.012Z,100625.66
2022-12-01T05:36:01.917Z,100612.72
2022-12-01T05:38:28.768Z,100617.69
2022-12-01T05:40:56.511Z,100619.50
2022-12-01T05:43:29.096Z,100625.31
2022-12-01T05:45:57.871Z,100616.59
2022-12-01T05:48:25.492Z,100621.78
2022-12-01T05:50:52.551Z,100620.47
2022-12-01T05:53:19.845Z,100626.81
2022-12-01T05:55:46.787Z,100634.31
2022-12-01T05:58:13.750Z,100631.81
2022-12-01T06:00:45.554Z,100637.13
2022-12-01T06:03:13.773Z,100635.63
2022-12-01T06:05:41.061Z,100624.97
2022-12-01T06:08:08.291Z,100639.28
2022-12-01T06:10:35.702Z,100630.31
2022-12-01T06:13:02.703Z,100640.63
2022-12-01T06:15:29.590Z,100637.50
2022-12-01T06:17:59.344Z,100634.00
2022-12-01T06:20:26.449Z,100634.00
2022-12-01T06:22:54.301Z,100632.31
2022-12-01T06:25:21.396Z,100631.50
2022-12-01T06:27:48.259Z,100630.34
2022-12-01T06:30:15.246Z,100634.53
2022-12-01T06:32:42.154Z,100638.72
2022-12-01T06:35:09.313Z,100634.25
2022-12-01T06:37:36.109Z,100643.38
2022-12-01T06:40:03.096Z,100634.06
2022-12-01T06:42:32.429Z,100630.13
2022-12-01T06:44:59.357Z,100647.59
2022-12-01T06:47:27.316Z,100644.78
2022-12-01T06:49:54.234Z,100642.41
2022-12-01T06:52:21.052Z,100649.25
2022-12-01T06:54:48.021Z,100650.47
2022-12-01T06:57:15.612Z,100652.44
2022-12-01T06:59:42.790Z,100649.78
2022-12-01T07:02:11.980Z,100657.25
2022-12-01T07:04:38.976Z,100663.56
2022-12-01T07:07:06.314Z,100663.56
2022-12-01T07:09:33.835Z,100667.84
2022-12-01T07:12:00.786Z,100659.34
2022-12-01T07:14:28.317Z,100670.97
2022-12-01T07:16:55.243Z,100671.28
2022-12-01T07:19:22.364Z,100675.47
2022-12-01T07:21:49.453Z,100685.28
2022-12-01T07:24:16.942Z,100676.28
2022-12-01T07:26:44.045Z,100678.09
2022-12-01T07:29:11.486Z,100682.59
2022-12-01T07:31:39.000Z,100693.69
2022-12-01T07:34:06.510Z,100693.50
2022-12-01T07:36:33.541Z,100692.84
2022-12-01T07:39:04.486Z,100692.53
2022-12-01T07:41:31.352Z,100693.31
2022-12-01T07:44:02.214Z,100700.16
2022-12-01T07:46:29.334Z,100686.31
2022-12-01T07:48:56.865Z,100697.63
2022-12-01T07:51:25.327Z,100704.78
2022-12-01T07:53:53.982Z,100701.75
2022-12-01T07:56:21.617Z,100711.72
2022-12-01T07:58:48.633Z,100704.06
2022-12-01T08:01:20.777Z,100703.06
2022-12-01T08:03:51.992Z,100701.53
2022-12-01T08:06:19.689Z,100707.50
2022-12-01T08:08:47.282Z,100708.00
2022-12-01T08:11:20.208Z,100711.41
2022-12-01T08:13:47.612Z,100712.41
2022-12-01T08:16:16.868Z,100706.41
2022-12-01T08:18:44.345Z,100712.41
2022-12-01T08:21:14.683Z,100715.22
2022-12-01T08:23:42.392Z,100711.56
2022-12-01T08:26:13.124Z,100714.38
2022-12-01T08:28:40.807Z,100717.19
2022-12-01T08:31:22.698Z,100711.66
2022-12-01T08:33:50.814Z,100717.81
2022-12-01T08:36:19.034Z,100717.13
2022-12-01T08:38:47.584Z,100719.63
2022-12-01T08:41:15.615Z,100726.31
2022-12-01T08:44:00.922Z,100725.41
2022-12-01T08:46:31.460Z,100722.31
2022-12-01T08:48:58.522Z,100724.78
2022-12-01T08:51:26.394Z,100727.81
2022-12-01T08:53:55.053Z,100725.75
2022-12-01T08:56:26.525Z,100734.06
2022-12-01T08:58:54.504Z,100722.88
2022-12-01T09:01:22.005Z,100727.38
2022-12-01T09:03:49.238Z,100729.44
2022-12-01T09:06:21.768Z,100722.66
2022-12-01T09:08:49.126Z,100726.16
2022-12-01T09:11:19.215Z,100725.84
2022-12-01T09:13:52.977Z,100727.53
2022-12-01T09:16:21.920Z,100729.41
2022-12-01T09:18:49.127Z,100728.47
2022-12-01T09:21:20.680Z,100728.31
2022-12-01T09:23:48.248Z,100733.19
2022-12-01T09:26:18.712Z,100734.03
2022-12-01T09:29:09.166Z,100730.22
2022-12-01T09:31:36.977Z,100728.09
2022-12-01T09:34:06.092Z,100735.81
2022-12-01T09:36:34.549Z,100723.59
2022-12-01T09:39:01.905Z,100722.22
2022-12-01T09:41:47.852Z,100719.19
2022-12-01T09:44:26.540Z,100716.22
2022-12-01T09:53:58.499Z,100714.34
2022-12-01T09:56:29.363Z,100715.34
2022-12-01T09:59:02.627Z,100703.34
2022-12-01T10:01:36.700Z,100713.31
2022-12-01T10:04:14.208Z,100714.00
2022-12-01T10:06:54.524Z,100704.38
2022-12-01T10:09:38.221Z,100700.38
2022-12-01T10:12:15.656Z,100694.03
2022-12-01T10:14:46.426Z,100683.59
2022-12-01T10:17:38.250Z,100689.44
2022-12-01T10:20:34.079Z,100687.47
2022-12-01T10:23:18.942Z,100680.50
2022-12-01T10:26:07.736Z,100689.66
2022-12-01T10:28:59.518Z,100682.00
2022-12-01T10:31:55.188Z,100681.88
2022-12-01T10:34:33.459Z,100671.44
2022-12-01T10:37:01.050Z,100679.44
2022-12-01T10:39:38.791Z,100667.75
2022-12-01T10:42:27.194Z,100669.38
2022-12-01T10:44:56.510Z,100665.22
2022-12-01T10:47:25.679Z,100659.56
2022-12-01T10:49:53.251Z,100653.44
2022-12-01T10:52:49.175Z,100648.97
2022-12-01T10:55:44.799Z,100652.63
2022-12-01T10:58:17.352Z,100664.34
2022-12-01T11:01:02.253Z,100655.19
2022-12-01T11:03:35.349Z,100660.00
2022-12-01T11:06:05.128Z,100658.84
2022-12-01T11:08:46.445Z,100655.97
2022-12-01T11:11:38.261Z,100664.16
2022-12-01T11:14:19.975Z,100652.13
2022-12-01T11:16:49.113Z,100658.50
2022-12-01T11:19:34.612Z,100651.53
2022-12-01T11:22:58.978Z,100660.69
2022-12-01T11:25:35.546Z,100646.19
2022-12-01T11:28:27.886Z,100654.00
2022-12-01T11:33:56.824Z,100650.34
2022-12-01T11:36:29.838Z,100649.06
2022-12-01T11:39:00.037Z,100650.22
2022-12-01T11:41:52.899Z,100639.72
2022-12-01T11:47:25.715Z,100646.88
2022-12-01T11:50:22.455Z,100654.53
2022-12-01T11:52:49.308Z,100648.19
2022-12-01T11:55:16.064Z,100654.81
2022-12-01T11:57:45.954Z,100653.53
2022-12-01T12:00:23.376Z,100642.03
2022-12-01T12:02:50.254Z,100641.22
2022-12-01T12:05:49.186Z,100640.72
2022-12-01T12:08:24.623Z,100646.06
2022-12-01T12:11:09.513Z,100644.06
2022-12-01T12:13:48.906Z,100642.41
2022-12-01T12:16:31.935Z,100636.44
2022-12-01T12:19:06.663Z,100632.75
2022-12-01T12:21:49.856Z,100638.72
2022-12-01T12:24:54.277Z,100636.25
2022-12-01T12:27:39.462Z,100630.75
2022-12-01T12:30:19.910Z,100633.06
2022-12-01T12:33:05.227Z,100624.88
2022-12-01T12:35:45.218Z,100628.75
2022-12-01T12:38:56.834Z,100623.72
2022-12-01T12:41:39.118Z,100622.22
2022-12-01T12:44:37.021Z,100622.03
2022-12-01T12:47:16.887Z,100625.53
2022-12-01T12:49:48.518Z,100629.22
2022-12-01T12:52:24.300Z,100634.59
2022-12-01T12:55:06.548Z,100626.91
2022-12-01T12:57:37.275Z,100629.56
2022-12-01T13:00:12.889Z,100635.25
2022-12-01T13:02:51.758Z,100631.91
2022-12-01T13:05:27.321Z,100636.06
2022-12-01T13:08:00.052Z,100630.75
2022-12-01T13:10:56.007Z,100632.09
2022-12-01T13:13:31.896Z,100632.41
2022-12-01T13:16:02.736Z,100628.91
2022-12-01T13:18:44.314Z,100623.75
2022-12-01T13:21:19.838Z,100626.22
2022-12-01T13:23:48.863Z,100629.09
2022-12-01T13:26:18.797Z,100623.91
2022-12-01T13:28:55.940Z,100633.59
2022-12-01T13:31:23.554Z,100628.91
2022-12-01T13:34:02.281Z,100633.75
2022-12-01T13:36:46.411Z,100631.25
2022-12-01T13:39:36.081Z,100617.91
2022-12-01T13:42:21.992Z,100625.75
2022-12-01T13:45:18.948Z,100614.72
2022-12-01T13:47:55.022Z,100624.88
2022-12-01T13:50:55.057Z,100615.53
2022-12-01T13:53:55.898Z,100615.91
2022-12-01T13:56:27.470Z,100616.72
2022-12-01T13:58:55.141Z,100626.75
2022-12-01T14:01:22.742Z,100622.59
2022-12-01T14:04:16.129Z,100615.06
2022-12-01T14:06:52.676Z,100622.25
2022-12-01T14:09:32.825Z,100615.25
2022-12-01T14:12:01.663Z,100620.72
2022-12-01T14:14:36.435Z,100611.03
2022-12-01T14:17:04.150Z,100618.91
2022-12-01T14:19:47.620Z,100620.41
2022-12-01T14:22:36.034Z,100614.75
2022-12-01T14:25:07.856Z,100621.41
2022-12-01T14:27:34.752Z,100622.09
2022-12-01T14:30:39.189Z,100620.75
2022-12-01T14:33:47.822Z,100618.38
2022-12-01T14:36:23.720Z,100617.56
2022-12-01T14:38:59.815Z,100622.41
2022-12-01T14:41:49.479Z,100615.88
2022-12-01T14:44:40.568Z,100618.72
2022-12-01T14:47:35.978Z,100621.25
2022-12-01T14:50:18.403Z,100627.06
2022-12-01T14:52:57.530Z,100627.22
2022-12-01T14:55:37.523Z,100623.91
2022-12-01T14:58:08.158Z,100629.59
2022-12-01T15:00:37.929Z,100631.09
2022-12-01T15:03:09.946Z,100623.41
2022-12-01T15:05:42.170Z,100616.56
2022-12-01T15:08:43.661Z,100625.06
2022-12-01T15:11:26.604Z,100628.09
2022-12-01T15:13:55.778Z,100623.22
2022-12-01T15:16:25.699Z,100624.91
2022-12-01T15:18:53.018Z,100628.75
2022-12-01T15:21:23.542Z,100634.09
2022-12-01T15:24:04.987Z,100627.59
2022-12-01T15:26:33.434Z,100632.25
2022-12-01T15:29:16.682Z,100634.56
2022-12-01T15:32:08.585Z,100631.75
2022-12-01T15:34:38.573Z,100620.75
2022-12-01T15:37:11.085Z,100621.25
2022-12-01T15:39:44.409Z,100615.56
2022-12-01T15:42:23.605Z,100626.59
2022-12-01T15:45:02.677Z,100619.41
2022-12-01T15:47:54.504Z,100624.75
2022-12-01T15:50:29.689Z,100620.25
2022-12-01T15:53:01.143Z,100630.09
2022-12-01T15:55:38.164Z,100624.25
2022-12-01T15:58:10.191Z,100628.44
2022-12-01T16:00:37.505Z,100631.75
2022-12-01T16:03:05.099Z,100627.25
2022-12-01T16:05:35.835Z,100618.94
2022-12-01T16:08:22.988Z,100627.91
2022-12-01T16:11:14.669Z,100640.41
2022-12-01T16:13:48.920Z,100637.41
2022-12-01T16:16:32.017Z,100633.09
2022-12-01T16:19:02.519Z,100634.75
2022-12-01T16:21:35.036Z,100634.94
2022-12-01T16:24:04.798Z,100627.25
2022-12-01T16:26:33.944Z,100628.44
2022-12-01T16:29:00.939Z,100634.75
2022-12-01T16:31:27.930Z,100632.94
2022-12-01T16:34:18.473Z,100631.56
2022-12-01T16:36:46.121Z,100628.09
2022-12-01T16:39:16.101Z,100632.25
2022-12-01T16:41:46.383Z,100631.41
2022-12-01T16:44:32.388Z,100631.91
2022-12-01T16:46:59.360Z,100642.09
2022-12-01T16:49:26.293Z,100630.25
2022-12-01T16:51:57.399Z,100636.75
2022-12-01T16:54:25.570Z,100635.41
2022-12-01T16:56:52.555Z,100638.75
2022-12-01T16:59:20.234Z,100636.75
2022-12-01T17:01:47.215Z,100636.91
2022-12-01T17:04:14.111Z,100651.75
2022-12-01T17:06:41.106Z,100643.41
2022-12-01T17:09:08.055Z,100649.75
2022-12-01T17:11:34.955Z,100644.25
2022-12-01T17:14:01.832Z,100646.59
2022-12-01T17:16:28.726Z,100650.75
2022-12-01T17:18:56.087Z,100648.41
2022-12-01T17:21:23.035Z,100647.91
2022-12-01T17:23:50.014Z,100648.44
2022-12-01T17:26:19.315Z,100653.44
2022-12-01T17:28:46.890Z,100653.09
2022-12-01T17:31:14.327Z,100650.09
2022-12-01T17:33:41.713Z,100652.09
2022-12-01T17:36:11.872Z,100660.91
2022-12-01T17:38:39.551Z,100649.59
2022-12-01T17:41:09.212Z,100651.94
2022-12-01T17:43:37.933Z,100652.09
2022-12-01T17:46:07.195Z,100647.91
2022-12-01T17:48:47.298Z,100650.94
2022-12-01T17:51:15.555Z,100657.94
2022-12-01T17:53:42.945Z,100653.59
2022-12-01T17:56:11.692Z,100657.25
2022-12-01T17:58:38.949Z,100663.09
2022-12-01T18:01:06.744Z,100665.59
2022-12-01T18:03:33.790Z,100660.59
2022-12-01T18:06:02.114Z,100659.91
2022-12-01T18:08:30.519Z,100668.94
2022-12-01T18:11:02.479Z,100662.78
2022-12-01T18:13:29.780Z,100661.59
2022-12-01T18:15:56.665Z,100665.06
2022-12-01T18:18:23.686Z,100665.25
2022-12-01T18:20:50.485Z,100674.25
2022-12-01T18:23:17.665Z,100661.44
2022-12-01T18:25:48.178Z,100660.41
2022-12-01T18:28:15.121Z,100664.25
2022-12-01T18:30:41.973Z,100659.25
2022-12-01T18:33:12.425Z,100655.59
2022-12-01T18:35:44.048Z,100666.59
2022-12-01T18:38:11.222Z,100663.78
2022-12-01T18:40:39.323Z,100665.09
2022-12-01T18:43:06.303Z,100661.75
2022-12-01T18:45:39.572Z,100661.75
2022-12-01T18:48:06.661Z,100666.09
2022-12-01T18:50:34.715Z,100665.75
2022-12-01T18:53:01.674Z,100659.41
2022-12-01T18:55:28.558Z,100668.59
2022-12-01T18:57:55.487Z,100664.41
2022-12-01T19:00:22.451Z,100662.25
2022-12-01T19:02:51.515Z,100664.91
2022-12-01T19:05:18.500Z,100661.75
2022-12-01T19:07:45.903Z,100671.41
2022-12-01T19:10:12.879Z,100665.41
2022-12-01T19:12:41.285Z,100656.09
2022-12-01T19:15:08.920Z,100663.56
2022-12-01T19:17:35.833Z,100667.09
2022-12-01T19:20:03.198Z,100666.75
2022-12-01T19:22:30.219Z,100667.75
2022-12-01T19:24:57.275Z,100672.75
2022-12-01T19:27:24.643Z,100672.41
2022-12-01T19:29:52.464Z,100671.41
2022-12-01T19:32:20.054Z,100667.41
2022-12-01T19:34:46.980Z,100672.41
2022-12-01T19:37:13.903Z,100675.72
2022-12-01T19:39:40.771Z,100671.75
2022-12-01T19:42:07.831Z,100674.25
2022-12-01T19:44:34.754Z,100672.41
2022-12-01T19:47:03.822Z,100673.59
2022-12-01T19:49:30.692Z,100670.56
2022-12-01T19:51:57.806Z,100674.09
2022-12-01T19:54:24.942Z,100667.28
2022-12-01T19:56:52.016Z,100676.78
2022-12-01T19:59:18.884Z,100664.22
2022-12-01T20:01:45.843Z,100670.09
2022-12-01T20:04:12.767Z,100664.41
2022-12-01T20:06:39.813Z,100669.25
2022-12-01T20:09:07.590Z,100668.91
2022-12-01T20:11:35.563Z,100669.41
2022-12-01T20:14:04.371Z,100674.41
2022-12-01T20:16:32.329Z,100671.56
2022-12-01T20:19:01.985Z,100677.22
2022-12-01T20:21:35.465Z,100669.22
2022-12-01T20:24:05.123Z,100677.41
2022-12-01T20:26:38.563Z,100677.06
2022-12-01T20:29:08.968Z,100670.88
2022-12-01T20:31:36.996Z,100663.41
2022-12-01T20:34:07.899Z,100663.22
2022-12-01T20:36:35.191Z,100664.88
2022-12-01T20:39:02.533Z,100662.03
2022-12-01T20:41:29.463Z,100663.38
2022-12-01T20:43:56.249Z,100656.22
2022-12-01T20:46:23.243Z,100670.03
2022-12-01T20:48:50.197Z,100662.53
2022-12-01T20:51:17.301Z,100669.84
2022-12-01T20:54:05.422Z,100659.72
2022-12-01T20:56:31.700Z,100668.88
2022-12-01T20:58:59.793Z,100659.72
2022-12-01T21:01:27.568Z,100659.53
2022-12-01T21:03:54.608Z,100669.03
2022-12-01T21:06:21.800Z,100673.06
2022-12-01T21:08:50.386Z,100661.56
2022-12-01T21:11:43.089Z,100670.88
2022-12-01T21:14:17.902Z,100666.56
2022-12-01T21:16:49.294Z,100667.38
2022-12-01T21:19:28.215Z,100670.50
2022-12-01T21:21:55.115Z,100667.84
2022-12-01T21:24:22.499Z,100667.03
2022-12-01T21:26:59.424Z,100675.66
2022-12-01T21:29:47.954Z,100671.50
2022-12-01T21:32:30.836Z,100676.81
2022-12-01T21:35:14.601Z,100675.16
2022-12-01T21:37:41.508Z,100685.13
2022-12-01T21:40:17.738Z,100678.63
2022-12-01T21:42:44.850Z,100684.78
2022-12-01T21:45:28.654Z,100677.63
2022-12-01T21:48:00.311Z,100687.78
2022-12-01T21:50:27.535Z,100679.44
2022-12-01T21:52:54.346Z,100681.22
2022-12-01T21:55:21.211Z,100677.88
2022-12-01T21:57:50.368Z,100673.25
2022-12-01T22:00:28.287Z,100684.09
2022-12-01T22:03:25.071Z,100686.25
2022-12-01T22:06:27.654Z,100682.25
2022-12-01T22:08:46.809Z,100683.44
2022-12-01T22:11:24.719Z,100682.09
2022-12-01T22:13:54.723Z,100688.25
2022-12-01T22:16:27.348Z,100687.41
2022-12-01T22:18:57.695Z,100684.56
2022-12-01T22:21:27.689Z,100681.56
2022-12-01T22:24:01.467Z,100673.72
2022-12-01T22:26:28.508Z,100671.91
2022-12-01T22:28:58.603Z,100671.94
2022-12-01T22:31:26.500Z,100669.41
2022-12-01T22:34:03.081Z,100668.25
2022-12-01T22:36:33.576Z,100662.94
2022-12-01T22:39:01.492Z,100665.09
2022-12-01T22:41:29.364Z,100662.59
2022-12-01T22:44:00.380Z,100661.44
2022-12-01T22:46:40.475Z,100659.25
2022-12-01T22:49:23.646Z,100653.91
2022-12-01T22:51:56.456Z,100659.09
2022-12-01T22:54:46.663Z,100659.91
2022-12-01T22:57:24.640Z,100663.25
2022-12-01T22:59:56.793Z,100654.13
2022-12-01T23:02:44.260Z,100650.97
2022-12-01T23:05:20.325Z,100651.81
2022-12-01T23:07:47.677Z,100652.28
2022-12-01T23:10:28.657Z,100650.47
2022-12-01T23:13:29.513Z,100652.28
2022-12-01T23:15:56.583Z,100649.47
2022-12-01T23:18:24.813Z,100653.13
2022-12-01T23:20:56.850Z,100652.78
2022-12-01T23:23:27.564Z,100645.09
2022-12-01T23:25:54.939Z,100649.41
2022-12-01T23:28:22.163Z,100650.25
2022-12-01T23:30:53.067Z,100637.44
2022-12-01T23:33:31.540Z,100636.44
2022-12-01T23:36:16.662Z,100645.06
2022-12-01T23:38:49.705Z,100645.94
2022-12-01T23:41:38.529Z,100646.78
2022-12-01T23:44:27.443Z,100645.78
2022-12-01T23:46:57.445Z,100639.78
2022-12-01T23:49:34.876Z,100645.56
2022-12-01T23:52:03.484Z,100649.75
2022-12-01T23:54:34.247Z,100644.41
2022-12-01T23:57:04.491Z,100638.25
2022-12-01T23:59:31.707Z,100636.59
